Time;durP1;ratioP1;P1;durP2;ratioP2;P2;SDS_P1;SDS_P2;PMS_P1;PMS_P2;Temp;Humidity;BMP_temperature;BMP_pressure;BME280_temperature;BME280_humidity;BME280_pressure;Samples;Min_cycle;Max_cycle;Signal;HPM_P1;HPM_P2
2021/04/12 00:02:33;;;;;;;13.30;2.67;;;;;;;8.37;59.10;100003.61;115481;1199;23128;-56
2021/04/12 00:05:18;;;;;;;14.23;3.23;;;;;;;8.32;59.11;100006.27;115661;1198;25563;-57
2021/04/12 00:07:54;;;;;;;13.65;2.75;;;;;;;8.26;59.01;100013.68;115555;1198;26269;-55
2021/04/12 00:10:30;;;;;;;11.50;2.50;;;;;;;8.17;59.12;100011.70;115691;1200;26139;-57
2021/04/12 00:13:05;;;;;;;14.10;2.77;;;;;;;8.10;59.07;100012.02;115638;1199;27644;-57
2021/04/12 00:15:39;;;;;;;13.23;2.87;;;;;;;8.01;59.37;100017.59;115586;1202;23233;-56
2021/04/12 00:18:14;;;;;;;13.90;3.03;;;;;;;7.93;59.58;100005.25;115577;1200;23159;-56
2021/04/12 00:20:51;;;;;;;18.03;2.77;;;;;;;7.86;59.46;100011.90;115550;1202;23109;-58
2021/04/12 00:23:26;;;;;;;13.30;2.50;;;;;;;7.83;59.63;100018.41;115584;1200;23558;-55
2021/04/12 00:26:08;;;;;;;11.53;2.50;;;;;;;7.84;59.85;100013.63;115558;1200;23244;-57
2021/04/12 00:28:43;;;;;;;13.20;2.60;;;;;;;7.82;59.80;100010.55;115621;1198;23244;-58
2021/04/12 00:31:17;;;;;;;13.00;3.33;;;;;;;7.81;59.57;100004.20;115571;1202;23075;-58
2021/04/12 00:33:59;;;;;;;12.60;2.90;;;;;;;7.80;59.80;100016.55;115543;1199;24665;-57
2021/04/12 00:36:34;;;;;;;12.63;2.63;;;;;;;7.78;59.83;100007.91;115579;1198;23109;-57
2021/04/12 00:39:08;;;;;;;11.35;2.75;;;;;;;7.75;59.91;100000.52;115513;1200;23081;-54
2021/04/12 00:42:13;;;;;;;14.95;3.35;;;;;;;7.70;59.81;100001.13;115492;1198;23136;-58
2021/04/12 00:45:02;;;;;;;14.40;2.65;;;;;;;7.64;60.10;99994.66;115372;1200;23098;-57
2021/04/12 00:47:42;;;;;;;11.60;2.35;;;;;;;7.62;60.09;99990.79;115394;1202;23138;-54
2021/04/12 00:50:40;;;;;;;11.50;2.15;;;;;;;7.58;60.24;99995.73;115473;1203;23125;-58
2021/04/12 00:53:27;;;;;;;12.05;2.25;;;;;;;7.54;60.34;99995.90;115055;1202;24781;-57
2021/04/12 00:56:01;;;;;;;9.20;2.10;;;;;;;7.48;60.25;99997.76;115033;1203;28226;-59
2021/04/12 00:58:43;;;;;;;14.10;2.40;;;;;;;7.47;60.55;99993.42;115086;1203;23110;-58
2021/04/12 01:01:35;;;;;;;9.20;2.40;;;;;;;7.43;60.50;99990.03;114881;1202;27400;-56
2021/04/12 01:04:29;;;;;;;12.80;2.30;;;;;;;7.40;60.62;99993.75;116014;1201;23120;-59
2021/04/12 01:07:21;;;;;;;15.10;2.60;;;;;;;7.37;60.71;99991.89;117019;1202;23101;-59
2021/04/12 01:10:28;;;;;;;16.60;4.60;;;;;;;7.36;60.71;99990.36;116059;1203;23114;-56
2021/04/12 01:13:47;;;;;;;19.40;3.77;;;;;;;7.34;60.80;99995.61;115094;1202;23283;-58
2021/04/12 01:16:36;;;;;;;18.60;4.03;;;;;;;7.30;60.98;99992.97;114888;1203;23133;-56
2021/04/12 01:19:33;;;;;;;16.10;3.45;;;;;;;7.30;60.98;100006.09;114729;1206;23160;-56
2021/04/12 01:22:37;;;;;;;13.60;3.60;;;;;;;7.29;61.09;100012.88;114841;1203;23115;-57
2021/04/12 01:25:54;;;;;;;11.10;2.60;;;;;;;7.26;61.16;100013.81;115052;1203;23158;-57
2021/04/12 01:28:58;;;;;;;16.40;3.65;;;;;;;7.23;61.14;100020.27;114941;1206;23192;-57
2021/04/12 01:32:04;;;;;;;13.37;2.73;;;;;;;7.22;61.05;100024.30;115269;1205;23478;-56
2021/04/12 01:35:08;;;;;;;16.20;3.10;;;;;;;7.20;61.19;100026.77;114999;1202;23183;-57
2021/04/12 01:37:53;;;;;;;12.20;3.03;;;;;;;7.18;61.12;100027.20;114835;1203;23135;-57
2021/04/12 01:40:29;;;;;;;13.60;3.27;;;;;;;7.16;61.19;100026.89;115032;1203;23151;-56
2021/04/12 01:43:13;;;;;;;12.15;2.60;;;;;;;7.10;61.24;100042.63;114757;1206;26071;-57
2021/04/12 01:45:49;;;;;;;12.35;2.35;;;;;;;7.02;61.32;100058.03;114565;1206;24797;-57
2021/04/12 01:48:38;;;;;;;12.70;2.90;;;;;;;6.84;61.39;100071.86;114843;1203;23148;-57
2021/04/12 01:51:40;;;;;;;13.85;2.85;;;;;;;6.64;61.55;100071.48;115075;1202;27300;-57
2021/04/12 01:54:48;;;;;;;10.47;2.80;;;;;;;6.55;61.54;100071.44;114981;1202;24444;-58
2021/04/12 01:57:43;;;;;;;10.65;2.40;;;;;;;6.56;61.81;100066.67;115125;1202;23298;-59
2021/04/12 02:00:34;;;;;;;9.80;2.30;;;;;;;6.56;61.68;100072.97;115315;1201;23264;-59
2021/04/12 02:03:19;;;;;;;11.40;2.30;;;;;;;6.56;61.90;100072.97;115409;1203;23112;-59
2021/04/12 02:06:09;;;;;;;18.80;3.80;;;;;;;6.40;61.76;100085.08;115374;1203;23239;-59
2021/04/12 02:08:48;;;;;;;17.50;3.47;;;;;;;6.35;62.10;100085.66;115282;1200;23188;-58
2021/04/12 02:11:42;;;;;;;16.83;3.63;;;;;;;6.26;62.28;100076.53;115332;1199;23109;-56
2021/04/12 02:14:31;;;;;;;14.60;3.85;;;;;;;6.20;62.35;100089.42;115520;1203;26032;-57
2021/04/12 02:17:10;;;;;;;14.05;2.90;;;;;;;6.18;62.59;100086.34;115422;1199;23183;-57
2021/04/12 02:20:03;;;;;;;15.00;3.30;;;;;;;6.08;62.68;100087.51;115485;1199;23222;-57
2021/04/12 02:23:00;;;;;;;12.97;3.23;;;;;;;6.06;62.65;100073.33;115461;1198;23259;-57
2021/04/12 02:25:45;;;;;;;16.55;2.50;;;;;;;6.06;62.71;100071.31;115578;1199;23112;-58
2021/04/12 02:28:24;;;;;;;14.10;3.67;;;;;;;6.08;62.78;100062.57;115489;1199;26326;-55
2021/04/12 02:31:05;;;;;;;15.20;4.85;;;;;;;6.09;62.72;100072.41;115480;1199;23263;-57
2021/04/12 02:33:35;;;;;;;;;;;;;;;6.05;62.77;100074.55;115461;1204;23098;-57
2021/04/12 02:36:13;;;;;;;14.77;3.97;;;;;;;6.01;62.82;100074.69;115543;1198;21767;-57
2021/04/12 02:38:54;;;;;;;15.70;3.40;;;;;;;5.99;62.88;100073.58;115562;1199;24590;-57
2021/04/12 02:41:39;;;;;;;16.97;4.20;;;;;;;5.94;63.01;100082.49;115480;1199;25577;-57
2021/04/12 02:44:35;;;;;;;16.33;4.37;;;;;;;5.86;63.21;100081.18;115584;1199;23112;-58
2021/04/12 02:47:43;;;;;;;18.73;3.83;;;;;;;5.82;63.37;100075.74;115410;1200;23249;-58
2021/04/12 02:50:29;;;;;;;13.35;3.45;;;;;;;5.69;63.07;100097.95;115615;1199;23131;-57
2021/04/12 02:53:12;;;;;;;10.70;3.00;;;;;;;5.55;63.18;100098.45;115515;1199;23234;-54
2021/04/12 02:56:07;;;;;;;14.05;3.60;;;;;;;5.41;62.95;100104.48;115451;1200;23192;-57
2021/04/12 02:59:00;;;;;;;14.37;3.23;;;;;;;5.16;63.02;100110.08;115499;1200;23132;-58
2021/04/12 03:01:53;;;;;;;13.75;2.50;;;;;;;5.07;63.48;100104.44;115628;1202;23163;-55
2021/04/12 03:04:44;;;;;;;14.53;2.97;;;;;;;4.94;63.75;100117.52;115736;1202;26240;-57
2021/04/12 03:07:51;;;;;;;13.27;3.00;;;;;;;4.86;64.17;100118.97;115554;1200;24790;-57
2021/04/12 03:10:28;;;;;;;17.50;3.60;;;;;;;4.84;64.20;100121.41;115730;1164;28239;-56
2021/04/12 03:13:23;;;;;;;13.10;3.40;;;;;;;4.83;64.27;100117.08;114942;1202;26385;-52
2021/04/12 03:16:05;;;;;;;13.37;2.90;;;;;;;4.86;64.04;100110.67;115016;1202;23122;-52
2021/04/12 03:19:14;;;;;;;10.35;2.60;;;;;;;4.86;64.05;100122.48;114929;1201;27354;-51
2021/04/12 03:22:23;;;;;;;11.80;3.30;;;;;;;4.82;64.63;100113.53;114727;1202;24752;-55
2021/04/12 03:25:19;;;;;;;13.20;3.25;;;;;;;4.77;64.69;100102.25;114618;1203;23230;-57
2021/04/12 03:28:14;;;;;;;12.90;3.15;;;;;;;4.75;65.03;100099.16;114647;1203;27086;-52
2021/04/12 03:30:53;;;;;;;14.70;3.20;;;;;;;4.69;64.92;100101.71;114603;1202;28260;-56
2021/04/12 03:33:36;;;;;;;12.87;3.40;;;;;;;4.67;65.02;100106.13;114681;1205;23187;-55
2021/04/12 03:36:26;;;;;;;13.50;3.40;;;;;;;4.63;65.28;100097.95;114607;1205;23187;-54
2021/04/12 03:39:05;;;;;;;15.75;3.45;;;;;;;4.64;65.15;100096.72;114729;1205;23127;-52
2021/04/12 03:41:58;;;;;;;12.40;3.50;;;;;;;4.64;65.13;100093.95;114849;1205;23249;-56
2021/04/12 03:44:46;;;;;;;12.65;3.45;;;;;;;4.69;65.08;100098.95;114657;1206;23197;-53
2021/04/12 03:47:47;;;;;;;17.10;4.20;;;;;;;4.72;64.92;100111.09;114624;1205;24813;-53
2021/04/12 03:50:29;;;;;;;15.00;3.95;;;;;;;4.68;65.11;100113.98;114681;1205;23138;-55
2021/04/12 03:53:36;;;;;;;15.80;4.25;;;;;;;4.64;66.19;100120.83;114674;1205;23170;-54
2021/04/12 03:56:53;;;;;;;18.10;5.80;;;;;;;4.62;67.27;100124.04;114659;1203;23243;-53
2021/04/12 03:59:34;;;;;;;17.00;5.40;;;;;;;4.67;68.50;100125.48;114643;1203;24783;-56
2021/04/12 04:02:28;;;;;;;18.03;5.93;;;;;;;4.73;68.23;100121.73;114500;1205;27416;-55
2021/04/12 04:05:18;;;;;;;14.20;5.00;;;;;;;4.78;69.55;100120.38;114578;1203;23145;-53
2021/04/12 04:08:21;;;;;;;20.10;6.30;;;;;;;4.91;71.06;100123.93;114657;1206;23276;-52
2021/04/12 04:11:16;;;;;;;17.57;5.93;;;;;;;5.22;72.36;100135.97;114761;1205;23101;-52
2021/04/12 04:14:06;;;;;;;23.25;6.95;;;;;;;5.48;72.97;100137.45;114638;1202;26045;-55
2021/04/12 04:16:49;;;;;;;18.20;6.80;;;;;;;5.68;73.57;100149.05;114768;1205;24801;-55
2021/04/12 04:19:38;;;;;;;19.55;6.20;;;;;;;5.86;73.32;100145.67;114590;1205;27374;-54
2021/04/12 04:22:38;;;;;;;20.60;6.40;;;;;;;6.02;74.39;100155.83;114532;1205;23197;-55
2021/04/12 04:25:38;;;;;;;20.85;6.95;;;;;;;6.16;73.19;100161.64;114382;1207;23144;-54
2021/04/12 04:28:31;;;;;;;24.87;8.67;;;;;;;6.31;74.33;100154.33;114096;1209;23172;-53
2021/04/12 04:31:31;;;;;;;24.90;9.30;;;;;;;6.48;75.62;100168.77;114317;1208;23237;-57
2021/04/12 04:34:30;;;;;;;25.77;10.73;;;;;;;6.65;75.82;100172.88;114522;1209;27489;-56
2021/04/12 04:37:34;;;;;;;27.43;12.23;;;;;;;6.78;75.45;100173.58;114417;1208;27051;-53
2021/04/12 04:40:33;;;;;;;29.35;11.80;;;;;;;6.91;75.46;100179.78;114091;1212;23223;-57
2021/04/12 04:43:17;;;;;;;30.00;12.40;;;;;;;6.98;75.51;100185.07;113934;1211;27480;-56
2021/04/12 04:46:10;;;;;;;26.15;10.10;;;;;;;7.06;77.67;100202.21;113968;1212;23181;-59
2021/04/12 04:49:03;;;;;;;30.70;13.40;;;;;;;7.14;75.62;100207.03;113972;1206;23170;-58
2021/04/12 04:51:52;;;;;;;34.90;13.40;;;;;;;7.20;74.77;100215.56;114052;1212;26175;-56
2021/04/12 04:54:44;;;;;;;34.10;12.50;;;;;;;7.27;75.18;100232.70;113881;1212;23451;-58
2021/04/12 04:57:35;;;;;;;33.35;14.05;;;;;;;7.34;75.20;100237.95;114139;1212;23265;-61
2021/04/12 05:00:25;;;;;;;31.50;13.35;;;;;;;7.42;75.42;100243.24;113985;1211;26181;-56
2021/04/12 05:03:32;;;;;;;37.70;15.90;;;;;;;7.50;75.68;100252.83;114358;1203;26076;-57
2021/04/12 05:06:26;;;;;;;31.10;13.60;;;;;;;7.60;76.17;100257.19;114454;1206;23483;-60
2021/04/12 05:09:18;;;;;;;43.40;19.85;;;;;;;7.70;77.46;100248.42;114853;1203;23140;-56
2021/04/12 05:12:07;;;;;;;39.20;18.00;;;;;;;7.81;76.51;100254.33;114643;1205;23150;-56
2021/04/12 05:15:10;;;;;;;44.83;20.33;;;;;;;7.91;76.86;100264.23;114545;1205;27300;-56
2021/04/12 05:18:07;;;;;;;46.90;20.40;;;;;;;8.00;76.85;100267.03;114736;1205;28179;-56
2021/04/12 05:20:56;;;;;;;40.40;19.10;;;;;;;8.10;77.07;100276.16;114574;1205;23125;-58
2021/04/12 05:23:46;;;;;;;44.00;18.63;;;;;;;8.16;77.08;100274.30;115314;1205;23103;-57
2021/04/12 05:26:29;;;;;;;41.65;18.50;;;;;;;8.24;76.91;100280.33;114949;1206;23136;-58
2021/04/12 05:29:42;;;;;;;39.00;18.70;;;;;;;8.28;77.17;100278.97;114678;1202;23622;-54
2021/04/12 05:32:26;;;;;;;41.53;18.07;;;;;;;8.34;76.87;100290.28;114608;1203;23128;-59
2021/04/12 05:35:13;;;;;;;35.45;14.75;;;;;;;8.37;77.41;100289.34;114594;1205;26811;-57
2021/04/12 05:38:03;;;;;;;34.05;14.90;;;;;;;8.39;77.13;100290.43;115928;1206;27351;-53
2021/04/12 05:40:49;;;;;;;37.70;16.20;;;;;;;8.41;77.07;100287.95;114536;1205;24938;-56
2021/04/12 05:43:39;;;;;;;34.10;13.70;;;;;;;8.42;77.08;100280.39;114742;1203;23207;-54
2021/04/12 05:46:34;;;;;;;30.10;13.60;;;;;;;8.40;76.74;100293.99;114602;1205;26134;-64
2021/04/12 05:49:28;;;;;;;29.15;13.95;;;;;;;8.39;76.68;100301.55;114595;1203;27224;-56
2021/04/12 05:52:16;;;;;;;29.20;13.60;;;;;;;8.39;76.52;100312.69;114617;1203;25968;-55
2021/04/12 05:55:12;;;;;;;32.10;12.40;;;;;;;8.38;76.54;100316.69;114731;1203;23350;-57
2021/04/12 05:58:22;;;;;;;28.25;12.60;;;;;;;8.37;76.64;100317.94;115075;1202;23131;-58
2021/04/12 06:01:19;;;;;;;30.87;12.23;;;;;;;8.37;76.52;100317.94;114837;1203;23457;-58
2021/04/12 06:03:57;;;;;;;29.25;13.15;;;;;;;8.36;76.51;100324.72;114605;1203;23140;-58
2021/04/12 06:06:56;;;;;;;31.53;14.27;;;;;;;8.38;76.35;100327.06;114531;1206;23161;-53
2021/04/12 06:10:05;;;;;;;34.40;16.90;;;;;;;8.38;76.40;100330.59;114537;1206;23134;-55
2021/04/12 06:13:05;;;;;;;32.50;14.80;;;;;;;8.37;76.43;100328.28;114240;1206;23893;-60
2021/04/12 06:15:59;;;;;;;30.65;13.65;;;;;;;8.36;76.38;100338.63;114268;1207;24789;-56
2021/04/12 06:19:06;;;;;;;31.00;13.30;;;;;;;8.35;77.08;100342.66;114283;1209;23170;-59
2021/04/12 06:21:55;;;;;;;34.55;14.70;;;;;;;8.27;77.34;100333.07;114175;1212;23166;-56
2021/04/12 06:24:58;;;;;;;32.90;14.40;;;;;;;8.25;76.88;100326.39;114121;1212;23431;-56
2021/04/12 06:28:13;;;;;;;31.65;14.15;;;;;;;8.24;76.87;100322.05;114125;1212;23214;-56
2021/04/12 06:31:00;;;;;;;32.05;13.95;;;;;;;8.24;76.75;100338.73;114080;1212;23215;-58
2021/04/12 06:33:54;;;;;;;32.00;14.65;;;;;;;8.24;77.51;100347.85;113971;1212;23182;-57
2021/04/12 06:36:55;;;;;;;31.15;12.65;;;;;;;8.25;77.11;100343.07;114056;1212;23169;-56
2021/04/12 06:40:00;;;;;;;27.10;11.60;;;;;;;8.21;76.91;100346.02;114025;1209;23158;-59
2021/04/12 06:43:14;;;;;;;30.50;14.30;;;;;;;8.17;76.88;100362.07;114402;1206;27509;-58
2021/04/12 06:46:28;;;;;;;29.75;11.80;;;;;;;8.15;77.06;100370.09;114208;1209;23302;-58
2021/04/12 06:49:46;;;;;;;25.90;11.40;;;;;;;8.12;77.26;100366.22;114490;1208;27844;-57
2021/04/12 06:52:37;;;;;;;25.10;11.40;;;;;;;8.05;76.90;100374.84;114521;1208;23150;-56
2021/04/12 06:55:20;;;;;;;30.90;13.50;;;;;;;8.02;76.98;100372.99;114891;1209;23157;-57
2021/04/12 06:58:32;;;;;;;28.50;12.30;;;;;;;7.99;77.11;100379.45;114575;1206;27024;-57
2021/04/12 07:01:32;;;;;;;28.20;12.10;;;;;;;7.97;77.43;100372.80;114604;1203;27249;-56
2021/04/12 07:04:39;;;;;;;30.13;13.53;;;;;;;7.92;77.70;100379.75;114686;1206;23133;-57
2021/04/12 07:07:49;;;;;;;24.35;11.65;;;;;;;7.88;77.68;100376.31;114593;1208;24799;-55
2021/04/12 07:10:48;;;;;;;27.45;11.45;;;;;;;7.80;79.22;100390.97;114559;1209;27221;-56
2021/04/12 07:13:50;;;;;;;28.40;11.25;;;;;;;7.76;77.74;100401.45;114541;1209;23304;-56
2021/04/12 07:16:52;;;;;;;26.40;10.25;;;;;;;7.74;77.62;100390.02;114203;1209;23161;-52
2021/04/12 07:20:04;;;;;;;28.95;12.30;;;;;;;7.71;77.49;100407.59;114178;1209;26761;-57
2021/04/12 07:23:20;;;;;;;19.50;7.70;;;;;;;7.67;77.53;100426.41;113831;1212;23510;-58
2021/04/12 07:26:23;;;;;;;20.50;8.80;;;;;;;7.60;77.65;100418.33;113872;1209;23169;-56
2021/04/12 07:29:29;;;;;;;23.80;9.20;;;;;;;7.56;77.87;100421.25;114229;1212;27492;-53
2021/04/12 07:32:37;;;;;;;22.75;9.15;;;;;;;7.48;77.96;100436.64;114339;1212;27497;-53
2021/04/12 07:35:31;;;;;;;25.43;11.00;;;;;;;7.45;77.71;100422.88;114410;1210;23234;-57
2021/04/12 07:38:36;;;;;;;27.00;11.45;;;;;;;7.41;77.91;100427.80;114192;1209;23167;-57
2021/04/12 07:41:45;;;;;;;23.50;10.30;;;;;;;7.36;78.29;100454.15;114276;1209;23142;-59
2021/04/12 07:45:14;;;;;;;32.10;10.60;;;;;;;7.31;78.39;100441.61;113925;1209;26289;-56
2021/04/12 07:48:20;;;;;;;19.50;7.50;;;;;;;7.24;79.06;100458.52;114425;1209;26905;-55
2021/04/12 07:51:29;;;;;;;21.30;9.10;;;;;;;7.19;78.61;100453.55;114223;1206;24703;-56
2021/04/12 07:54:45;;;;;;;20.00;8.00;;;;;;;7.16;78.89;100464.77;114310;1209;23200;-57
2021/04/12 07:57:50;;;;;;;25.70;9.20;;;;;;;7.18;78.49;100462.34;114183;1206;26956;-54
2021/04/12 08:00:56;;;;;;;23.50;9.55;;;;;;;7.19;78.59;100466.66;114099;1206;23339;-56
2021/04/12 08:03:53;;;;;;;23.70;9.20;;;;;;;7.20;78.42;100471.00;114310;1208;28553;-56
2021/04/12 08:06:58;;;;;;;17.50;6.60;;;;;;;7.17;78.73;100488.55;114440;1209;23131;-54
2021/04/12 08:10:10;;;;;;;23.80;6.30;;;;;;;7.12;78.22;100481.56;114495;1209;23180;-59
2021/04/12 08:13:27;;;;;;;18.20;7.65;;;;;;;7.08;78.03;100486.46;114076;1210;23157;-57
2021/04/12 08:16:47;;;;;;;15.70;5.55;;;;;;;7.05;78.07;100487.38;114087;1211;23186;-58
2021/04/12 08:19:41;;;;;;;21.23;7.10;;;;;;;7.03;78.15;100502.92;114257;1206;23154;-58
2021/04/12 08:22:51;;;;;;;22.30;6.90;;;;;;;7.03;78.13;100498.16;114549;1209;26195;-58
2021/04/12 08:26:02;;;;;;;18.20;6.10;;;;;;;7.06;78.37;100511.12;114161;1206;23173;-57
2021/04/12 08:29:18;;;;;;;20.30;5.80;;;;;;;7.05;78.09;100515.13;114060;1209;23148;-57
2021/04/12 08:32:26;;;;;;;15.30;5.35;;;;;;;7.04;78.44;100516.34;113694;1214;23262;-57
2021/04/12 08:35:31;;;;;;;14.00;4.40;;;;;;;6.96;78.37;100525.36;113713;1209;23162;-58
2021/04/12 08:38:30;;;;;;;16.90;4.50;;;;;;;6.88;77.96;100529.59;113726;1212;26914;-56
2021/04/12 08:41:32;;;;;;;12.80;4.00;;;;;;;6.86;77.90;100537.59;113671;1214;23265;-58
2021/04/12 08:44:30;;;;;;;10.60;3.40;;;;;;;6.84;77.77;100538.05;114375;1215;23527;-58
2021/04/12 08:47:34;;;;;;;14.20;3.80;;;;;;;6.83;77.70;100547.58;113566;1213;23190;-58
2021/04/12 08:50:22;;;;;;;19.50;4.40;;;;;;;6.85;77.93;100550.68;113453;1218;23380;-57
2021/04/12 08:53:31;;;;;;;13.10;3.80;;;;;;;6.84;77.67;100553.91;113519;1212;23177;-56
2021/04/12 08:56:17;;;;;;;15.20;4.00;;;;;;;6.82;77.67;100557.14;113478;1217;23741;-57
2021/04/12 08:59:15;;;;;;;13.85;4.20;;;;;;;6.87;77.99;100561.36;113524;1218;24806;-56
2021/04/12 09:02:16;;;;;;;9.05;2.70;;;;;;;6.85;77.70;100572.13;113705;1212;23460;-57
2021/04/12 09:05:13;;;;;;;12.35;2.65;;;;;;;6.81;77.43;100568.66;113668;1212;23168;-57
2021/04/12 09:08:11;;;;;;;10.20;3.00;;;;;;;6.79;77.61;100574.67;113967;1209;28718;-56
2021/04/12 09:11:06;;;;;;;7.05;2.20;;;;;;;6.77;77.70;100577.11;114401;1206;23173;-58
2021/04/12 09:14:09;;;;;;;9.10;2.00;;;;;;;6.75;78.00;100570.45;114304;1206;23279;-58
2021/04/12 09:17:04;;;;;;;8.70;1.70;;;;;;;6.67;77.73;100571.89;114192;1206;28276;-57
2021/04/12 09:20:05;;;;;;;4.50;1.10;;;;;;;6.67;77.88;100581.00;114438;1206;23147;-58
2021/04/12 09:23:03;;;;;;;6.05;1.40;;;;;;;6.66;77.94;100582.23;114422;1209;23259;-57
2021/04/12 09:26:11;;;;;;;7.07;1.97;;;;;;;6.68;77.99;100587.34;114375;1206;23138;-57
2021/04/12 09:29:16;;;;;;;6.70;1.70;;;;;;;6.64;78.19;100590.23;115025;1200;23253;-58
2021/04/12 09:32:18;;;;;;;7.50;2.20;;;;;;;6.60;77.92;100602.65;114775;1199;23133;-58
2021/04/12 09:35:11;;;;;;;6.30;1.50;;;;;;;6.60;78.29;100611.73;114667;1203;26010;-58
2021/04/12 09:38:14;;;;;;;8.80;2.20;;;;;;;6.57;78.03;100609.07;114486;1202;23202;-57
2021/04/12 09:41:24;;;;;;;9.65;2.50;;;;;;;6.54;78.13;100610.73;114741;1206;23149;-58
2021/04/12 09:44:30;;;;;;;9.50;1.90;;;;;;;6.52;78.21;100613.16;114849;1206;26289;-58
2021/04/12 09:47:48;;;;;;;5.00;1.25;;;;;;;6.48;78.34;100609.73;114695;1205;23141;-57
2021/04/12 09:51:07;;;;;;;5.37;1.33;;;;;;;6.52;78.17;100621.48;114523;1205;27243;-57
2021/04/12 09:54:15;;;;;;;7.50;1.40;;;;;;;6.50;78.03;100618.38;114598;1206;26249;-58
2021/04/12 09:57:36;;;;;;;4.30;1.00;;;;;;;6.47;78.40;100622.05;114661;1209;23159;-58
2021/04/12 10:00:34;;;;;;;6.70;1.20;;;;;;;6.45;77.61;100627.27;114531;1202;23308;-58
2021/04/12 10:03:32;;;;;;;7.30;1.15;;;;;;;6.44;77.73;100632.03;114609;1203;26207;-58
2021/04/12 10:06:37;;;;;;;4.00;0.80;;;;;;;6.43;77.36;100632.48;114483;1203;23156;-57
2021/04/12 10:09:39;;;;;;;6.15;1.30;;;;;;;6.41;76.71;100629.37;117297;1208;26229;-58
2021/04/12 10:12:44;;;;;;;9.40;1.60;;;;;;;6.41;77.23;100632.14;114669;1203;23310;-57
2021/04/12 10:15:22;;;;;;;10.25;1.90;;;;;;;6.44;77.04;100634.02;114384;1207;23602;-59
2021/04/12 10:17:56;;;;;;;4.70;1.20;;;;;;;6.43;77.04;100646.34;114693;1208;23246;-57
2021/04/12 10:20:30;;;;;;;4.80;1.20;;;;;;;6.44;77.09;100645.11;114445;1208;23154;-56
2021/04/12 10:23:01;;;;;;;6.75;1.30;;;;;;;6.45;77.08;100641.92;114592;1207;23166;-56
2021/04/12 10:25:38;;;;;;;7.10;1.50;;;;;;;6.43;77.00;100644.33;114518;1207;27438;-57
2021/04/12 10:28:17;;;;;;;6.40;1.30;;;;;;;6.39;77.33;100656.77;114529;1209;23178;-58
2021/04/12 10:30:54;;;;;;;5.40;1.25;;;;;;;6.37;77.18;100653.66;114314;1206;28533;-57
2021/04/12 10:33:41;;;;;;;5.80;1.30;;;;;;;6.36;77.30;100650.09;114391;1206;23145;-57
2021/04/12 10:36:20;;;;;;;5.65;1.10;;;;;;;6.35;77.17;100665.16;114535;1205;23286;-58
2021/04/12 10:38:56;;;;;;;5.95;1.30;;;;;;;6.27;77.11;100663.81;114434;1206;23163;-59
2021/04/12 10:41:29;;;;;;;5.70;1.25;;;;;;;6.19;77.90;100670.00;114499;1205;23168;-57
2021/04/12 10:44:07;;;;;;;5.25;1.30;;;;;;;6.13;77.96;100668.98;114612;1205;24953;-58
2021/04/12 10:46:47;;;;;;;5.30;1.30;;;;;;;6.10;78.17;100672.64;114559;1203;23134;-58
2021/04/12 10:49:19;;;;;;;5.88;1.00;;;;;;;6.07;78.24;100662.42;114679;1205;26249;-58
2021/04/12 10:51:54;;;;;;;5.60;1.20;;;;;;;6.06;78.29;100672.72;115015;1203;23195;-57
2021/04/12 10:54:40;;;;;;;5.80;1.30;;;;;;;6.08;77.77;100675.08;114947;1202;23204;-56
2021/04/12 10:57:27;;;;;;;6.50;1.30;;;;;;;6.11;77.57;100682.50;115374;1199;28259;-57
2021/04/12 11:00:24;;;;;;;3.97;0.97;;;;;;;6.10;77.74;100678.19;114901;1199;26299;-58
2021/04/12 11:03:16;;;;;;;6.83;1.20;;;;;;;6.05;77.65;100675.94;114788;1202;23371;-56
2021/04/12 11:05:53;;;;;;;6.10;1.20;;;;;;;6.00;78.16;100684.80;114888;1203;23146;-57
2021/04/12 11:08:30;;;;;;;5.20;1.30;;;;;;;5.97;77.86;100680.13;114976;1203;23138;-55
2021/04/12 11:11:11;;;;;;;5.67;1.50;;;;;;;5.92;77.90;100686.97;114728;1202;23122;-58
2021/04/12 11:13:46;;;;;;;4.75;1.20;;;;;;;5.87;78.28;100698.60;114689;1200;23118;-58
2021/04/12 11:16:20;;;;;;;4.90;1.00;;;;;;;5.85;78.24;100708.55;114752;1202;23114;-57
2021/04/12 11:19:14;;;;;;;4.67;1.30;;;;;;;5.86;78.25;100707.33;114774;1199;23120;-57
2021/04/12 11:21:52;;;;;;;6.20;1.55;;;;;;;5.85;77.97;100712.11;114792;1202;23122;-56
2021/04/12 11:24:28;;;;;;;4.67;1.50;;;;;;;5.85;77.92;100714.09;114676;1202;23109;-57
2021/04/12 11:27:39;;;;;;;5.70;1.50;;;;;;;5.85;77.96;100720.42;114625;1202;23222;-56
2021/04/12 11:30:17;;;;;;;6.20;1.57;;;;;;;5.80;77.90;100723.67;114688;1200;27345;-57
2021/04/12 11:33:11;;;;;;;5.80;1.60;;;;;;;5.80;78.00;100731.20;114767;1202;23127;-55
2021/04/12 11:35:53;;;;;;;7.00;1.60;;;;;;;5.73;78.41;100741.25;114695;1202;26128;-58
2021/04/12 11:38:25;;;;;;;6.40;1.95;;;;;;;5.65;78.50;100748.19;114683;1202;23145;-57
2021/04/12 11:40:59;;;;;;;5.35;1.85;;;;;;;5.59;78.31;100740.83;114910;1203;23263;-57
2021/04/12 11:43:31;;;;;;;7.70;2.20;;;;;;;5.60;78.25;100737.64;114850;1200;23141;-58
2021/04/12 11:46:07;;;;;;;8.35;2.25;;;;;;;5.63;78.12;100738.75;114777;1202;23257;-58
2021/04/12 11:48:47;;;;;;;7.60;1.50;;;;;;;5.63;78.42;100738.75;114816;1202;23118;-58
2021/04/12 11:51:22;;;;;;;7.67;1.50;;;;;;;5.54;78.64;100738.59;114914;1203;23114;-57
2021/04/12 11:53:56;;;;;;;6.15;1.50;;;;;;;5.44;78.58;100745.92;115136;1202;23115;-57
2021/04/12 11:56:50;;;;;;;6.63;1.50;;;;;;;5.36;78.59;100750.08;114997;1202;23276;-56
2021/04/12 11:59:43;;;;;;;8.05;1.80;;;;;;;5.27;78.70;100751.89;114892;1200;23183;-58
2021/04/12 12:02:24;;;;;;;5.10;1.25;;;;;;;5.22;78.89;100763.47;114771;1202;23584;-58
2021/04/12 12:04:54;;;;;;;;;;;;;;;5.16;78.69;100760.44;114796;1204;23315;-58
2021/04/12 12:07:35;;;;;;;9.15;1.80;;;;;;;5.14;78.78;100759.30;114842;1202;21607;-59
2021/04/12 12:10:19;;;;;;;5.30;1.30;;;;;;;5.13;78.45;100764.05;115122;1202;23263;-59
2021/04/12 12:13:00;;;;;;;7.65;1.70;;;;;;;5.16;78.41;100781.80;114940;1200;23360;-57
2021/04/12 12:15:39;;;;;;;9.15;1.80;;;;;;;5.18;78.33;100785.70;114981;1200;23115;-56
2021/04/12 12:18:18;;;;;;;7.20;1.80;;;;;;;5.18;78.16;100793.21;115235;1199;23118;-58
2021/04/12 12:20:50;;;;;;;10.00;2.00;;;;;;;5.11;78.03;100777.54;114954;1200;24296;-57
2021/04/12 12:23:42;;;;;;;8.90;1.90;;;;;;;5.08;78.23;100781.18;114965;1203;23748;-58
2021/04/12 12:26:24;;;;;;;10.60;2.10;;;;;;;5.04;77.97;100774.16;114819;1200;26010;-57
2021/04/12 12:29:05;;;;;;;10.10;2.10;;;;;;;5.03;77.98;100775.38;115283;1200;23115;-58
2021/04/12 12:31:40;;;;;;;9.55;2.40;;;;;;;5.02;78.38;100780.13;115116;1200;23144;-57
2021/04/12 12:34:32;;;;;;;9.10;2.25;;;;;;;5.04;78.41;100788.78;115244;1202;27636;-57
2021/04/12 12:37:12;;;;;;;10.35;2.60;;;;;;;5.06;78.14;100797.44;115044;1200;23420;-59
2021/04/12 12:39:45;;;;;;;11.37;2.63;;;;;;;5.06;77.48;100785.58;114838;1199;27691;-57
2021/04/12 12:42:21;;;;;;;10.85;2.70;;;;;;;5.05;77.30;100793.09;114941;1202;23324;-56
2021/04/12 12:44:54;;;;;;;9.75;2.45;;;;;;;5.09;77.67;100795.80;114997;1200;23111;-57
2021/04/12 12:47:26;;;;;;;8.17;2.33;;;;;;;5.12;77.23;100795.72;114970;1202;23208;-56
2021/04/12 12:49:59;;;;;;;8.40;2.20;;;;;;;5.13;76.57;100808.33;114776;1203;24941;-52
2021/04/12 12:52:33;;;;;;;7.20;2.00;;;;;;;5.12;76.00;100806.78;115090;1199;27236;-60
2021/04/12 12:55:11;;;;;;;9.85;2.75;;;;;;;5.13;75.99;100804.81;114929;1203;23215;-53
2021/04/12 12:57:42;;;;;;;9.50;2.05;;;;;;;5.13;75.98;100805.56;114771;1203;23132;-57
2021/04/12 13:00:19;;;;;;;7.93;2.10;;;;;;;5.14;75.55;100815.44;114651;1203;23251;-57
2021/04/12 13:02:49;;;;;;;11.00;3.15;;;;;;;5.11;75.77;100807.22;114611;1202;23105;-56
2021/04/12 13:05:31;;;;;;;12.17;2.73;;;;;;;5.10;75.79;100791.81;114791;1202;23122;-57
2021/04/12 13:08:12;;;;;;;9.30;2.37;;;;;;;5.11;75.39;100791.38;115020;1199;23121;-52
2021/04/12 13:10:43;;;;;;;12.58;2.65;;;;;;;5.11;75.59;100783.08;115023;1199;23195;-56
2021/04/12 13:13:20;;;;;;;8.50;2.10;;;;;;;5.14;75.37;100796.06;114655;1200;23165;-56